Etusivu
METAR-TAF:

METAR-TAF

Lentoasemat :

Saglek Bay, Newfoundland ja Labrador, Kanada

Leveyspiiri: 58-20N, Pituuspiiri: 062-35W, korkeus merenpinnasta: 483 m

Tämänhetkinen sää

Tämä raportti tehtiin 26 minuuttia sitten, kello 16.00 UTC
Tuuli 22 kn pohjoisesta/koillisesta
Lämpötila -20°C
Kosteus 84%
Ilmanpaine 1009 hPa
Pilvistä 500 ft:n korkeudessa

METAR: CWZZ 251600Z AUTO 02022KT ////SM OVC005 M20/M22 A2980

Aika: 12:26 (16:26 UTC)


TAF: puuttuu

Säähavainnot ja -ennusteet yli 4000 lentoasemalta (METAR- ja TAF-raportit).

Käytössä olevat sääasemat on merkitty karttaan keltaisilla ja punaisilla pisteillä.

Aseta hiiri pisteen päälle nähdäksesi sääaseman nimen.

Klikkaa sitten nähdäksesi säähavainnot ja -ennusteet.

Kartan vaihtaminen: klikkaa mustalla rastilla varustettuja vihreitä pisteitä, niin voit zoomata sisään; viivalla varustettua vihreää pistettä, niin voit zoomata ulos tai vihreitä nuolia, niin pääset viereisille kartoille.


METAR-TAF: